createdAt,value
2022-11-21T00:01:20.543Z,28.10
2022-11-21T00:03:48.475Z,37.50
2022-11-21T00:06:17.566Z,23.70
2022-11-21T00:08:46.274Z,52.80
2022-11-21T00:11:14.049Z,70.40
2022-11-21T00:13:42.659Z,74.60
2022-11-21T00:16:13.431Z,95.70
2022-11-21T00:18:42.529Z,71.60
2022-11-21T00:21:16.455Z,53.30
2022-11-21T00:23:45.083Z,58.60
2022-11-21T00:26:14.587Z,48.00
2022-11-21T00:28:42.613Z,42.80
2022-11-21T00:31:22.405Z,45.20
2022-11-21T00:33:50.165Z,43.00
2022-11-21T00:36:18.064Z,40.10
2022-11-21T00:38:45.961Z,40.30
2022-11-21T00:41:13.637Z,34.20
2022-11-21T00:43:41.331Z,31.10
2022-11-21T00:46:08.961Z,34.90
2022-11-21T00:48:36.653Z,56.80
2022-11-21T00:51:04.399Z,85.70
2022-11-21T00:53:32.136Z,106.80
2022-11-21T00:55:59.888Z,95.90
2022-11-21T00:58:27.763Z,50.30
2022-11-21T01:01:24.694Z,46.20
2022-11-21T01:03:52.449Z,47.30
2022-11-21T01:06:20.079Z,53.00
2022-11-21T01:08:47.714Z,38.60
2022-11-21T01:11:18.183Z,40.80
2022-11-21T01:13:46.808Z,41.80
2022-11-21T01:16:23.529Z,39.80
2022-11-21T01:18:51.773Z,37.40
2022-11-21T01:21:23.628Z,41.10
2022-11-21T01:23:51.831Z,45.30
2022-11-21T01:26:21.957Z,36.50
2022-11-21T01:28:50.530Z,47.30
2022-11-21T01:31:20.100Z,71.30
2022-11-21T01:33:48.485Z,72.60
2022-11-21T01:36:18.863Z,46.90
2022-11-21T01:38:48.990Z,44.30
2022-11-21T01:41:21.643Z,45.30
2022-11-21T01:43:50.216Z,44.00
2022-11-21T01:46:22.240Z,43.60
2022-11-21T01:49:02.756Z,44.80
2022-11-21T01:52:06.857Z,38.90
2022-11-21T01:54:37.385Z,36.70
2022-11-21T01:57:26.846Z,29.30
2022-11-21T01:59:58.054Z,45.80
2022-11-21T02:02:31.773Z,37.90
2022-11-21T02:05:01.157Z,47.40
2022-11-21T02:07:33.579Z,37.90
2022-11-21T02:10:03.093Z,38.30
2022-11-21T02:12:50.108Z,37.20
2022-11-21T02:15:19.128Z,58.70
2022-11-21T02:17:46.798Z,67.20
2022-11-21T02:20:17.795Z,52.60
2022-11-21T02:23:00.552Z,40.90
2022-11-21T02:25:31.474Z,43.20
2022-11-21T02:28:02.872Z,43.10
2022-11-21T02:30:32.778Z,45.00
2022-11-21T02:33:00.473Z,42.10
2022-11-21T02:35:28.123Z,48.40
2022-11-21T02:38:12.908Z,42.70
2022-11-21T02:40:45.272Z,35.70
2022-11-21T02:43:27.785Z,39.60
2022-11-21T02:45:56.272Z,32.70
2022-11-21T02:48:24.352Z,36.60
2022-11-21T02:50:51.996Z,31.20
2022-11-21T02:53:20.147Z,34.00
2022-11-21T02:55:47.985Z,55.20
2022-11-21T02:58:15.743Z,68.80
2022-11-21T03:00:43.967Z,70.10
2022-11-21T03:03:11.649Z,69.70
2022-11-21T03:05:39.750Z,92.70
2022-11-21T03:08:07.941Z,84.20
2022-11-21T03:10:36.031Z,47.70
2022-11-21T03:13:04.985Z,48.70
2022-11-21T03:15:34.623Z,51.50
2022-11-21T03:18:04.065Z,44.10
2022-11-21T03:20:34.467Z,49.20
2022-11-21T03:23:02.486Z,45.30
2022-11-21T03:25:30.151Z,40.20
2022-11-21T03:27:57.836Z,36.50
2022-11-21T03:30:27.183Z,39.30
2022-11-21T03:32:56.600Z,36.40
2022-11-21T03:35:25.663Z,44.70
2022-11-21T03:37:53.548Z,65.60
2022-11-21T03:40:21.241Z,62.00
2022-11-21T03:42:48.903Z,55.00
2022-11-21T03:45:16.552Z,54.30
2022-11-21T03:47:44.305Z,47.00
2022-11-21T03:50:15.048Z,42.30
2022-11-21T03:52:42.676Z,41.00
2022-11-21T03:55:12.871Z,45.10
2022-11-21T03:57:40.711Z,52.10
2022-11-21T04:00:09.057Z,39.70
2022-11-21T04:02:36.812Z,44.30
2022-11-21T04:05:04.784Z,47.40
2022-11-21T04:07:32.428Z,36.60
2022-11-21T04:10:00.161Z,38.50
2022-11-21T04:12:27.953Z,34.40
2022-11-21T04:14:55.610Z,31.70
2022-11-21T04:17:23.290Z,35.40
2022-11-21T04:19:50.929Z,33.60
2022-11-21T04:22:18.626Z,52.00
2022-11-21T04:24:46.287Z,57.10
2022-11-21T04:27:14.002Z,73.10
2022-11-21T04:29:41.629Z,48.20
2022-11-21T04:32:09.280Z,42.80
2022-11-21T04:34:38.101Z,47.80
2022-11-21T04:37:11.283Z,42.90
2022-11-21T04:39:39.356Z,35.90
2022-11-21T04:42:07.088Z,42.40
2022-11-21T04:44:34.776Z,33.70
2022-11-21T04:47:05.364Z,42.60
2022-11-21T04:49:33.426Z,33.30
2022-11-21T04:52:01.145Z,29.10
2022-11-21T04:54:29.102Z,18.80
2022-11-21T04:56:57.168Z,51.20
2022-11-21T04:59:24.860Z,59.90
2022-11-21T05:01:52.527Z,80.30
2022-11-21T05:04:20.158Z,89.10
2022-11-21T05:06:47.838Z,85.20
2022-11-21T05:09:15.475Z,69.60
2022-11-21T05:12:01.650Z,48.90
2022-11-21T05:14:29.687Z,53.20
2022-11-21T05:16:57.543Z,46.40
2022-11-21T05:19:25.278Z,51.10
2022-11-21T05:21:53.060Z,45.30
2022-11-21T05:24:20.686Z,45.30
2022-11-21T05:26:48.381Z,43.30
2022-11-21T05:29:16.153Z,39.40
2022-11-21T05:31:43.957Z,39.20
2022-11-21T05:34:11.731Z,41.70
2022-11-21T05:36:39.416Z,39.80
2022-11-21T05:39:07.376Z,17.50
2022-11-21T05:41:37.530Z,30.00
2022-11-21T05:44:07.586Z,45.30
2022-11-21T05:49:02.879Z,41.80
2022-11-21T05:51:31.061Z,58.80
2022-11-21T05:53:59.423Z,92.10
2022-11-21T05:56:27.190Z,99.20
2022-11-21T05:58:55.893Z,105.40
2022-11-21T06:01:42.233Z,55.50
2022-11-21T06:04:10.639Z,40.90
2022-11-21T06:06:38.297Z,46.60
2022-11-21T06:09:05.995Z,43.20
2022-11-21T06:11:33.823Z,45.70
2022-11-21T06:14:01.474Z,40.90
2022-11-21T06:16:29.156Z,35.40
2022-11-21T06:18:58.615Z,16.40
2022-11-21T06:21:29.065Z,32.60
2022-11-21T06:23:58.952Z,34.70
2022-11-21T06:26:27.816Z,30.10
2022-11-21T06:28:55.746Z,24.80
2022-11-21T06:31:26.125Z,34.30
2022-11-21T06:33:55.631Z,25.30
2022-11-21T06:36:24.480Z,48.60
2022-11-21T06:38:54.739Z,66.80
2022-11-21T06:41:27.128Z,79.90
2022-11-21T06:43:54.831Z,75.20
2022-11-21T06:46:22.487Z,55.10
2022-11-21T06:48:50.255Z,49.20
2022-11-21T06:51:19.234Z,47.10
2022-11-21T06:53:48.923Z,50.50
2022-11-21T06:56:16.652Z,45.40
2022-11-21T06:58:44.388Z,42.10
2022-11-21T07:01:12.144Z,36.80
2022-11-21T07:03:40.516Z,42.30
2022-11-21T07:06:08.248Z,45.80
2022-11-21T07:08:36.706Z,38.60
2022-11-21T07:11:24.701Z,38.90
2022-11-21T07:13:53.259Z,17.20
2022-11-21T07:16:21.020Z,23.30
2022-11-21T07:18:48.768Z,35.60
2022-11-21T07:21:16.661Z,33.30
2022-11-21T07:23:44.309Z,31.90
2022-11-21T07:26:12.288Z,35.50
2022-11-21T07:28:40.110Z,21.20
2022-11-21T07:31:13.567Z,18.90
2022-11-21T07:33:46.766Z,41.70
2022-11-21T07:36:14.687Z,61.70
2022-11-21T07:38:42.568Z,54.70
2022-11-21T07:41:10.453Z,45.50
2022-11-21T07:43:39.751Z,55.20
2022-11-21T07:46:07.497Z,28.40
2022-11-21T07:48:35.188Z,42.30
2022-11-21T07:51:04.804Z,41.90
2022-11-21T07:53:32.662Z,36.20
2022-11-21T07:56:00.548Z,30.40
2022-11-21T07:58:28.327Z,20.00
2022-11-21T08:00:56.516Z,36.40
2022-11-21T08:03:25.298Z,27.60
2022-11-21T08:05:53.086Z,26.20
2022-11-21T08:08:20.809Z,31.80
2022-11-21T08:10:48.599Z,31.20
2022-11-21T08:13:16.280Z,29.10
2022-11-21T08:15:44.473Z,43.90
2022-11-21T08:20:42.974Z,32.90
2022-11-21T08:23:11.075Z,38.30
2022-11-21T08:25:40.110Z,31.60
2022-11-21T08:28:09.283Z,32.60
2022-11-21T08:30:37.757Z,27.60
2022-11-21T08:33:06.393Z,31.40
2022-11-21T08:38:06.844Z,27.30
2022-11-21T08:40:35.582Z,23.80
2022-11-21T08:43:07.008Z,33.00
2022-11-21T08:45:35.966Z,23.70
2022-11-21T08:48:04.525Z,20.70
2022-11-21T08:50:33.404Z,36.30
2022-11-21T08:53:04.132Z,33.50
2022-11-21T08:55:31.869Z,16.30
2022-11-21T08:57:59.554Z,16.30
2022-11-21T09:00:27.442Z,35.70
2022-11-21T09:02:55.202Z,33.10
2022-11-21T09:05:22.989Z,33.90
2022-11-21T09:07:59.812Z,30.20
2022-11-21T09:10:29.205Z,26.30
2022-11-21T09:12:59.902Z,20.60
2022-11-21T09:15:45.987Z,29.20
2022-11-21T09:18:14.010Z,26.50
2022-11-21T09:20:47.279Z,25.60
2022-11-21T09:23:15.911Z,21.90
2022-11-21T09:25:44.736Z,16.10
2022-11-21T09:28:13.943Z,25.00
2022-11-21T09:30:42.562Z,23.30
2022-11-21T09:33:13.066Z,25.10
2022-11-21T09:35:40.796Z,24.10
2022-11-21T09:38:08.807Z,26.20
2022-11-21T09:40:36.998Z,23.90
2022-11-21T09:43:41.844Z,15.50
2022-11-21T09:46:13.094Z,26.90
2022-11-21T09:48:47.003Z,24.30
2022-11-21T09:51:18.078Z,25.40
2022-11-21T09:53:56.264Z,20.90
2022-11-21T09:56:25.045Z,25.20
2022-11-21T09:59:14.596Z,16.50
2022-11-21T10:01:42.571Z,17.70
2022-11-21T10:04:10.449Z,21.00
2022-11-21T10:06:44.178Z,28.90
2022-11-21T10:09:30.700Z,18.80
2022-11-21T10:12:32.473Z,23.10
2022-11-21T10:15:06.829Z,21.20
2022-11-21T10:18:00.930Z,22.90
2022-11-21T10:20:37.477Z,16.40
2022-11-21T10:23:23.656Z,18.90
2022-11-21T10:25:59.648Z,16.10
2022-11-21T10:31:19.357Z,28.90
2022-11-21T10:33:48.844Z,17.30
2022-11-21T10:36:26.894Z,26.30
2022-11-21T10:39:01.171Z,22.40
2022-11-21T10:42:06.715Z,17.60
2022-11-21T10:44:53.206Z,16.90
2022-11-21T10:47:30.852Z,20.60
2022-11-21T10:50:10.709Z,17.90
2022-11-21T10:53:40.166Z,29.70
2022-11-21T10:56:12.643Z,13.10
2022-11-21T10:58:47.942Z,21.50
2022-11-21T11:01:18.760Z,19.40
2022-11-21T11:04:07.080Z,15.90
2022-11-21T11:06:34.468Z,18.90
2022-11-21T11:09:02.574Z,13.20
2022-11-21T11:11:30.508Z,20.00
2022-11-21T11:14:07.048Z,22.20
2022-11-21T11:16:41.451Z,25.30
2022-11-21T11:19:15.284Z,26.90
2022-11-21T11:21:45.393Z,31.10
2022-11-21T11:24:12.960Z,24.50
2022-11-21T11:26:52.994Z,25.30
2022-11-21T11:29:32.691Z,25.90
2022-11-21T11:32:05.089Z,30.00
2022-11-21T11:34:35.699Z,20.50
2022-11-21T11:37:21.142Z,28.20
2022-11-21T11:40:14.065Z,18.70
2022-11-21T11:43:03.593Z,17.90
2022-11-21T11:45:56.136Z,23.30
2022-11-21T11:48:23.819Z,28.80
2022-11-21T11:51:02.048Z,25.80
2022-11-21T11:53:37.129Z,23.20
2022-11-21T11:56:19.744Z,29.50
2022-11-21T11:59:00.706Z,30.60
2022-11-21T12:01:44.180Z,26.60
2022-11-21T12:04:17.973Z,28.00
2022-11-21T12:07:54.049Z,24.50
2022-11-21T12:10:07.005Z,28.00
2022-11-21T12:15:41.419Z,27.30
2022-11-21T12:18:15.366Z,29.50
2022-11-21T12:21:12.453Z,26.20
2022-11-21T12:23:48.013Z,33.30
2022-11-21T12:26:25.405Z,27.80
2022-11-21T12:29:11.997Z,22.20
2022-11-21T12:31:58.250Z,31.40
2022-11-21T12:34:47.389Z,36.60
2022-11-21T12:37:48.121Z,28.10
2022-11-21T12:43:39.913Z,25.60
2022-11-21T12:46:20.341Z,26.90
2022-11-21T12:49:18.888Z,21.00
2022-11-21T12:52:34.624Z,18.30
2022-11-21T12:55:32.156Z,25.40
2022-11-21T12:58:18.526Z,25.80
2022-11-21T13:01:03.433Z,20.80
2022-11-21T13:03:54.879Z,29.90
2022-11-21T13:06:26.129Z,27.20
2022-11-21T13:08:55.916Z,19.70
2022-11-21T13:11:52.334Z,32.40
2022-11-21T13:14:23.066Z,30.80
2022-11-21T13:17:22.236Z,31.80
2022-11-21T13:20:04.982Z,25.10
2022-11-21T13:22:35.682Z,23.40
2022-11-21T13:25:11.877Z,34.20
2022-11-21T13:27:43.080Z,29.80
2022-11-21T13:30:11.190Z,26.80
2022-11-21T13:32:44.269Z,23.40
2022-11-21T13:35:15.045Z,28.10
2022-11-21T13:37:51.802Z,32.20
2022-11-21T13:40:31.759Z,20.80
2022-11-21T13:43:31.493Z,28.70
2022-11-21T13:45:56.587Z,33.10
2022-11-21T13:48:55.150Z,27.00
2022-11-21T13:51:50.500Z,32.10
2022-11-21T13:54:33.438Z,18.40
2022-11-21T13:57:05.162Z,44.00
2022-11-21T14:00:00.745Z,27.50
2022-11-21T14:02:37.926Z,28.50
2022-11-21T14:05:30.264Z,20.40
2022-11-21T14:08:18.852Z,24.50
2022-11-21T14:10:48.595Z,36.50
2022-11-21T14:13:23.530Z,26.40
2022-11-21T14:16:29.802Z,41.00
2022-11-21T14:18:58.803Z,28.10
2022-11-21T14:21:29.794Z,34.40
2022-11-21T14:24:04.250Z,20.00
2022-11-21T14:26:42.909Z,24.20
2022-11-21T14:29:50.269Z,22.50
2022-11-21T14:32:26.183Z,25.80
2022-11-21T14:37:34.579Z,35.90
2022-11-21T14:40:04.382Z,19.10
2022-11-21T14:45:23.709Z,30.50
2022-11-21T14:47:54.538Z,31.00
2022-11-21T14:50:28.238Z,17.50
2022-11-21T14:52:59.233Z,23.30
2022-11-21T14:55:32.367Z,15.60
2022-11-21T14:58:03.759Z,33.80
2022-11-21T15:01:02.649Z,37.60
2022-11-21T15:03:23.686Z,44.40
2022-11-21T15:06:06.348Z,29.60
2022-11-21T15:11:40.592Z,21.60
2022-11-21T15:14:34.351Z,44.00
2022-11-21T15:17:07.254Z,33.60
2022-11-21T15:19:35.116Z,43.30
2022-11-21T15:22:04.640Z,30.00
2022-11-21T15:24:42.846Z,39.80
2022-11-21T15:27:26.404Z,25.50
2022-11-21T15:30:09.135Z,35.00
2022-11-21T15:33:16.454Z,35.80
2022-11-21T15:35:48.939Z,37.80
2022-11-21T15:38:19.681Z,49.80
2022-11-21T15:41:04.870Z,51.80
2022-11-21T15:43:38.777Z,47.20
2022-11-21T15:46:30.765Z,29.70
2022-11-21T15:49:30.903Z,40.00
2022-11-21T15:52:06.597Z,19.90
2022-11-21T15:54:35.304Z,40.60
2022-11-21T15:57:03.056Z,25.70
2022-11-21T15:59:31.394Z,52.20
2022-11-21T16:01:59.434Z,41.40
2022-11-21T16:04:27.622Z,26.50
2022-11-21T16:06:55.500Z,40.80
2022-11-21T16:09:23.750Z,15.00
2022-11-21T16:11:53.969Z,25.00
2022-11-21T16:14:22.702Z,44.50
2022-11-21T16:16:50.636Z,23.80
2022-11-21T16:19:18.617Z,51.20
2022-11-21T16:21:49.432Z,49.70
2022-11-21T16:24:17.158Z,19.10
2022-11-21T16:26:44.982Z,29.80
2022-11-21T16:29:12.711Z,28.00
2022-11-21T16:31:40.526Z,38.10
2022-11-21T16:34:08.389Z,26.20
2022-11-21T16:36:36.331Z,25.00
2022-11-21T16:39:09.923Z,29.10
2022-11-21T16:41:41.306Z,34.70
2022-11-21T16:44:14.257Z,42.10
2022-11-21T16:46:44.166Z,26.80
2022-11-21T16:51:39.563Z,22.90
2022-11-21T16:54:09.256Z,21.90
2022-11-21T16:56:37.534Z,42.50
2022-11-21T16:59:05.207Z,34.90
2022-11-21T17:01:33.015Z,40.60
2022-11-21T17:04:00.778Z,25.70
2022-11-21T17:06:30.570Z,32.60
2022-11-21T17:09:04.624Z,53.10
2022-11-21T17:11:32.358Z,28.70
2022-11-21T17:14:06.100Z,42.60
2022-11-21T17:16:34.739Z,32.60
2022-11-21T17:19:04.675Z,21.80
2022-11-21T17:24:00.511Z,31.30
2022-11-21T17:26:29.137Z,23.30
2022-11-21T17:28:59.133Z,35.70
2022-11-21T17:31:29.359Z,56.00
2022-11-21T17:33:58.706Z,46.50
2022-11-21T17:36:28.747Z,29.90
2022-11-21T17:38:56.939Z,36.60
2022-11-21T17:41:30.664Z,33.10
2022-11-21T17:43:59.711Z,45.30
2022-11-21T17:46:28.442Z,41.40
2022-11-21T17:48:58.996Z,42.40
2022-11-21T17:51:34.325Z,42.20
2022-11-21T17:54:02.789Z,50.40
2022-11-21T17:56:33.709Z,38.40
2022-11-21T17:59:01.847Z,42.00
2022-11-21T18:01:30.954Z,40.50
2022-11-21T18:04:03.462Z,35.40
2022-11-21T18:06:36.791Z,32.50
2022-11-21T18:09:06.395Z,37.00
2022-11-21T18:11:39.864Z,53.90
2022-11-21T18:14:10.208Z,57.90
2022-11-21T18:16:39.686Z,35.70
2022-11-21T18:19:14.337Z,42.50
2022-11-21T18:21:42.392Z,57.90
2022-11-21T18:24:10.475Z,55.20
2022-11-21T18:26:39.538Z,40.70
2022-11-21T18:31:57.589Z,38.00
2022-11-21T18:34:25.312Z,42.80
2022-11-21T18:36:54.343Z,48.60
2022-11-21T18:39:25.339Z,36.80
2022-11-21T18:41:56.037Z,50.20
2022-11-21T18:44:23.860Z,56.10
2022-11-21T18:46:51.893Z,52.00
2022-11-21T18:49:19.870Z,38.30
2022-11-21T18:51:48.560Z,52.70
2022-11-21T18:54:17.883Z,35.50
2022-11-21T18:56:47.283Z,27.80
2022-11-21T18:59:15.697Z,44.30
2022-11-21T19:01:43.583Z,29.10
2022-11-21T19:04:11.481Z,47.60
2022-11-21T19:06:39.228Z,47.20
2022-11-21T19:09:08.385Z,37.20
2022-11-21T19:11:36.383Z,33.50
2022-11-21T19:14:04.607Z,48.40
2022-11-21T19:16:34.657Z,47.40
2022-11-21T19:21:54.899Z,27.80
2022-11-21T19:24:22.709Z,35.80
2022-11-21T19:26:50.784Z,26.10
2022-11-21T19:29:19.191Z,32.60
2022-11-21T19:31:47.166Z,21.70
2022-11-21T19:34:15.698Z,39.30
2022-11-21T19:36:45.056Z,27.00
2022-11-21T19:39:13.514Z,32.90
2022-11-21T19:41:41.599Z,32.60
2022-11-21T19:44:10.972Z,27.10
2022-11-21T19:46:39.225Z,34.90
2022-11-21T19:49:10.031Z,30.60
2022-11-21T19:51:42.625Z,29.90
2022-11-21T19:54:12.585Z,28.50
2022-11-21T19:56:40.545Z,23.60
2022-11-21T19:59:12.142Z,27.00
2022-11-21T20:01:41.263Z,26.50
2022-11-21T20:04:11.341Z,27.10
2022-11-21T20:06:42.492Z,21.60
2022-11-21T20:09:16.296Z,26.60
2022-11-21T20:11:46.448Z,21.00
2022-11-21T20:14:20.919Z,35.60
2022-11-21T20:16:51.056Z,18.70
2022-11-21T20:19:20.439Z,34.20
2022-11-21T20:21:48.536Z,25.50
2022-11-21T20:24:16.743Z,41.90
2022-11-21T20:26:45.014Z,40.70
2022-11-21T20:29:14.165Z,30.50
2022-11-21T20:31:43.239Z,24.30
2022-11-21T20:34:15.524Z,34.00
2022-11-21T20:36:43.396Z,26.30
2022-11-21T20:39:17.229Z,22.70
2022-11-21T20:41:46.807Z,36.70
2022-11-21T20:45:20.243Z,45.30
2022-11-21T20:47:08.592Z,28.20
2022-11-21T20:49:36.377Z,33.20
2022-11-21T20:54:51.980Z,23.50
2022-11-21T20:57:19.730Z,32.00
2022-11-21T20:59:47.350Z,42.10
2022-11-21T21:02:15.767Z,32.60
2022-11-21T21:04:43.505Z,24.30
2022-11-21T21:07:12.392Z,29.10
2022-11-21T21:09:40.352Z,28.90
2022-11-21T21:12:08.135Z,23.40
2022-11-21T21:14:35.823Z,22.10
2022-11-21T21:17:03.568Z,30.60
2022-11-21T21:19:31.725Z,34.00
2022-11-21T21:21:59.656Z,41.80
2022-11-21T21:24:27.732Z,24.10
2022-11-21T21:26:55.509Z,25.80
2022-11-21T21:29:23.216Z,28.70
2022-11-21T21:31:52.372Z,20.70
2022-11-21T21:34:21.847Z,25.50
2022-11-21T21:36:50.785Z,22.20
2022-11-21T21:39:18.698Z,23.00
2022-11-21T21:41:47.562Z,31.60
2022-11-21T21:44:16.716Z,30.50
2022-11-21T21:46:45.072Z,25.90
2022-11-21T21:49:12.803Z,26.60
2022-11-21T21:51:41.216Z,29.10
2022-11-21T21:54:17.579Z,31.90
2022-11-21T21:56:46.759Z,32.00
2022-11-21T21:59:15.318Z,26.70
2022-11-21T22:01:43.156Z,20.80
2022-11-21T22:04:12.341Z,26.40
2022-11-21T22:06:40.044Z,27.60
2022-11-21T22:09:08.026Z,18.40
2022-11-21T22:11:38.327Z,34.20
2022-11-21T22:14:10.932Z,47.40
2022-11-21T22:16:39.556Z,33.20
2022-11-21T22:19:07.905Z,31.50
2022-11-21T22:21:37.694Z,26.20
2022-11-21T22:26:53.445Z,32.50
2022-11-21T22:29:21.205Z,26.70
2022-11-21T22:31:48.854Z,28.60
2022-11-21T22:34:16.503Z,23.90
2022-11-21T22:36:44.767Z,21.00
2022-11-21T22:39:12.504Z,40.40
2022-11-21T22:41:40.157Z,36.90
2022-11-21T22:44:07.812Z,36.10
2022-11-21T22:46:35.478Z,35.90
2022-11-21T22:49:03.841Z,36.20
2022-11-21T22:51:32.755Z,40.10
2022-11-21T22:54:00.409Z,38.10
2022-11-21T22:56:28.226Z,36.00
2022-11-21T22:58:56.240Z,31.80
2022-11-21T23:01:25.878Z,29.30
2022-11-21T23:03:55.643Z,31.30
2022-11-21T23:06:26.014Z,25.80
2022-11-21T23:08:55.558Z,54.40
2022-11-21T23:11:27.500Z,45.70
2022-11-21T23:13:56.635Z,39.30
2022-11-21T23:16:25.388Z,30.50
2022-11-21T23:18:54.610Z,36.40
2022-11-21T23:21:22.731Z,31.30
2022-11-21T23:23:50.503Z,34.70
2022-11-21T23:26:18.728Z,30.70
2022-11-21T23:28:46.441Z,41.40
2022-11-21T23:31:14.393Z,28.00
2022-11-21T23:33:42.150Z,34.40
2022-11-21T23:36:09.846Z,30.80
2022-11-21T23:38:37.723Z,12.40
2022-11-21T23:41:05.656Z,25.00
2022-11-21T23:43:33.387Z,27.60
2022-11-21T23:46:01.073Z,28.70
2022-11-21T23:48:28.944Z,28.10
2022-11-21T23:50:57.003Z,32.80
2022-11-21T23:53:24.759Z,34.10
2022-11-21T23:55:52.460Z,36.10
2022-11-21T23:58:20.404Z,29.10
